Terminal Aerodrome Forecast
Issued by NWS Detroit/Pontiac, MI

Home | Current Version | Previous Version | Text Only | Print | Product List | Glossary On
Versions: 1 2 3 4 5 6 7 8 9 10 11 12 13 14 15 16 17 18 19 20 21 22 23 24 25 26 27 28 29
000
FTUS43 KDTX 051439 AAB
TAFFNT
TAF AMD
KFNT 051439Z 0515/0612 23007KT P6SM BKN015 BKN150
     FM051600 26007KT P6SM SCT035 BKN150
     FM051900 25008KT P6SM BKN040 BKN200
     FM060000 VRB04KT P6SM SCT050 BKN200
     FM060400 VRB02KT 4SM BR BKN250=

USA.gov is the U.S. government's official web portal to all federal, state and local government web resources and services.